Terminal Aerodrome Forecast
Issued by NWS Duluth, MN

Home | Current Version | Previous Version | Text Only | Print | Product List | Glossary On
Versions: 1 2 3 4 5 6 7 8 9 10 11 12 13 14 15 16 17 18 19 20 21 22 23 24 25 26 27 28 29 30 31 32 33 34 35 36 37 38 39 40 41 42
019
FTUS43 KDLH 271727
TAFDLH
TAF
KDLH 271727Z 2718/2818 33004KT P6SM OVC090
     FM280400 VRB03KT 4SM BR SCT250
     FM280900 VRB03KT 2SM BR SCT035
     FM281300 VRB03KT 3SM BR SCT015
     FM281500 08006KT P6SM SCT025=

USA.gov is the U.S. government's official web portal to all federal, state and local government web resources and services.